sensor_id;sensor_type;location;lat;lon;timestamp;temperature;humidity
9486;DHT22;4781;48.776;9.200;2023-04-06T00:00:15;2.70;85.70
9486;DHT22;4781;48.776;9.200;2023-04-06T00:02:44;2.70;86.90
9486;DHT22;4781;48.776;9.200;2023-04-06T00:05:12;2.70;84.80
9486;DHT22;4781;48.776;9.200;2023-04-06T00:07:41;2.70;84.70
9486;DHT22;4781;48.776;9.200;2023-04-06T00:10:09;2.60;85.60
9486;DHT22;4781;48.776;9.200;2023-04-06T00:12:38;2.60;84.30
9486;DHT22;4781;48.776;9.200;2023-04-06T00:15:07;2.60;84.80
9486;DHT22;4781;48.776;9.200;2023-04-06T00:17:35;2.50;87.40
9486;DHT22;4781;48.776;9.200;2023-04-06T00:20:04;2.50;85.60
9486;DHT22;4781;48.776;9.200;2023-04-06T00:22:34;2.40;85.90
9486;DHT22;4781;48.776;9.200;2023-04-06T00:25:02;2.50;84.90
9486;DHT22;4781;48.776;9.200;2023-04-06T00:27:31;2.40;86.00
9486;DHT22;4781;48.776;9.200;2023-04-06T00:29:59;2.40;86.50
9486;DHT22;4781;48.776;9.200;2023-04-06T00:32:28;2.40;86.80
9486;DHT22;4781;48.776;9.200;2023-04-06T00:34:56;2.40;87.40
9486;DHT22;4781;48.776;9.200;2023-04-06T00:37:25;2.30;88.70
9486;DHT22;4781;48.776;9.200;2023-04-06T00:39:53;2.30;88.40
9486;DHT22;4781;48.776;9.200;2023-04-06T00:42:23;2.30;86.60
9486;DHT22;4781;48.776;9.200;2023-04-06T00:44:56;2.30;87.80
9486;DHT22;4781;48.776;9.200;2023-04-06T00:47:26;2.30;87.70
9486;DHT22;4781;48.776;9.200;2023-04-06T00:49:55;2.30;87.40
9486;DHT22;4781;48.776;9.200;2023-04-06T00:52:23;2.30;90.00
9486;DHT22;4781;48.776;9.200;2023-04-06T00:54:52;2.30;89.00
9486;DHT22;4781;48.776;9.200;2023-04-06T00:57:20;2.20;88.40
9486;DHT22;4781;48.776;9.200;2023-04-06T00:59:48;2.20;90.40
9486;DHT22;4781;48.776;9.200;2023-04-06T01:02:17;2.20;90.50
9486;DHT22;4781;48.776;9.200;2023-04-06T01:04:45;2.10;90.00
9486;DHT22;4781;48.776;9.200;2023-04-06T01:07:14;2.20;90.60
9486;DHT22;4781;48.776;9.200;2023-04-06T01:09:42;2.10;90.90
9486;DHT22;4781;48.776;9.200;2023-04-06T01:12:10;2.10;90.60
9486;DHT22;4781;48.776;9.200;2023-04-06T01:14:39;2.10;89.30
9486;DHT22;4781;48.776;9.200;2023-04-06T01:17:07;2.10;88.60
9486;DHT22;4781;48.776;9.200;2023-04-06T01:19:36;2.10;90.60
9486;DHT22;4781;48.776;9.200;2023-04-06T01:22:06;2.10;89.70
9486;DHT22;4781;48.776;9.200;2023-04-06T01:24:35;2.00;89.40
9486;DHT22;4781;48.776;9.200;2023-04-06T01:27:03;2.00;90.80
9486;DHT22;4781;48.776;9.200;2023-04-06T01:29:32;1.90;91.60
9486;DHT22;4781;48.776;9.200;2023-04-06T01:32:00;1.90;90.30
9486;DHT22;4781;48.776;9.200;2023-04-06T01:34:29;1.90;90.00
9486;DHT22;4781;48.776;9.200;2023-04-06T01:36:57;1.90;91.60
9486;DHT22;4781;48.776;9.200;2023-04-06T01:39:26;1.80;92.10
9486;DHT22;4781;48.776;9.200;2023-04-06T01:41:54;1.80;92.40
9486;DHT22;4781;48.776;9.200;2023-04-06T01:44:23;1.80;92.10
9486;DHT22;4781;48.776;9.200;2023-04-06T01:46:51;1.80;91.70
9486;DHT22;4781;48.776;9.200;2023-04-06T01:49:20;1.70;92.40
9486;DHT22;4781;48.776;9.200;2023-04-06T01:51:48;1.70;92.30
9486;DHT22;4781;48.776;9.200;2023-04-06T01:54:16;1.70;91.10
9486;DHT22;4781;48.776;9.200;2023-04-06T01:56:45;1.70;91.30
9486;DHT22;4781;48.776;9.200;2023-04-06T01:59:13;1.70;91.40
9486;DHT22;4781;48.776;9.200;2023-04-06T02:01:42;1.60;92.20
9486;DHT22;4781;48.776;9.200;2023-04-06T02:04:10;1.60;92.80
9486;DHT22;4781;48.776;9.200;2023-04-06T02:06:40;1.60;93.00
9486;DHT22;4781;48.776;9.200;2023-04-06T02:09:08;1.60;92.80
9486;DHT22;4781;48.776;9.200;2023-04-06T02:11:36;1.60;91.90
9486;DHT22;4781;48.776;9.200;2023-04-06T02:14:05;1.60;91.90
9486;DHT22;4781;48.776;9.200;2023-04-06T02:16:33;1.50;92.60
9486;DHT22;4781;48.776;9.200;2023-04-06T02:19:02;1.50;92.50
9486;DHT22;4781;48.776;9.200;2023-04-06T02:21:30;1.50;92.10
9486;DHT22;4781;48.776;9.200;2023-04-06T02:23:58;1.50;92.50
9486;DHT22;4781;48.776;9.200;2023-04-06T02:26:27;1.40;93.50
9486;DHT22;4781;48.776;9.200;2023-04-06T02:28:55;1.40;91.70
9486;DHT22;4781;48.776;9.200;2023-04-06T02:31:24;1.40;92.50
9486;DHT22;4781;48.776;9.200;2023-04-06T02:33:52;1.40;92.00
9486;DHT22;4781;48.776;9.200;2023-04-06T02:36:21;1.40;92.20
9486;DHT22;4781;48.776;9.200;2023-04-06T02:38:49;1.30;92.70
9486;DHT22;4781;48.776;9.200;2023-04-06T02:41:18;1.30;93.70
9486;DHT22;4781;48.776;9.200;2023-04-06T02:43:46;1.30;93.20
9486;DHT22;4781;48.776;9.200;2023-04-06T02:46:15;1.20;92.30
9486;DHT22;4781;48.776;9.200;2023-04-06T02:48:43;1.30;91.90
9486;DHT22;4781;48.776;9.200;2023-04-06T02:51:11;1.20;92.90
9486;DHT22;4781;48.776;9.200;2023-04-06T02:53:40;1.20;93.90
9486;DHT22;4781;48.776;9.200;2023-04-06T02:56:08;1.10;94.30
9486;DHT22;4781;48.776;9.200;2023-04-06T02:58:37;1.10;94.30
9486;DHT22;4781;48.776;9.200;2023-04-06T03:01:05;1.10;94.20
9486;DHT22;4781;48.776;9.200;2023-04-06T03:03:33;1.10;93.60
9486;DHT22;4781;48.776;9.200;2023-04-06T03:06:02;1.10;93.60
9486;DHT22;4781;48.776;9.200;2023-04-06T03:08:31;1.10;92.60
9486;DHT22;4781;48.776;9.200;2023-04-06T03:10:59;1.10;93.30
9486;DHT22;4781;48.776;9.200;2023-04-06T03:13:27;1.10;93.40
9486;DHT22;4781;48.776;9.200;2023-04-06T03:15:57;1.00;94.10
9486;DHT22;4781;48.776;9.200;2023-04-06T03:18:25;1.00;94.30
9486;DHT22;4781;48.776;9.200;2023-04-06T03:20:54;0.90;94.60
9486;DHT22;4781;48.776;9.200;2023-04-06T03:23:22;0.90;94.70
9486;DHT22;4781;48.776;9.200;2023-04-06T03:25:51;0.90;94.80
9486;DHT22;4781;48.776;9.200;2023-04-06T03:28:19;0.90;93.90
9486;DHT22;4781;48.776;9.200;2023-04-06T03:30:49;0.90;93.30
9486;DHT22;4781;48.776;9.200;2023-04-06T03:33:18;0.90;93.20
9486;DHT22;4781;48.776;9.200;2023-04-06T03:35:46;0.90;93.30
9486;DHT22;4781;48.776;9.200;2023-04-06T03:38:15;0.90;93.00
9486;DHT22;4781;48.776;9.200;2023-04-06T03:40:43;0.90;93.00
9486;DHT22;4781;48.776;9.200;2023-04-06T03:43:11;0.90;94.30
9486;DHT22;4781;48.776;9.200;2023-04-06T03:45:40;0.90;93.60
9486;DHT22;4781;48.776;9.200;2023-04-06T03:48:08;0.90;94.00
9486;DHT22;4781;48.776;9.200;2023-04-06T03:50:37;0.90;93.80
9486;DHT22;4781;48.776;9.200;2023-04-06T03:53:05;0.90;93.60
9486;DHT22;4781;48.776;9.200;2023-04-06T03:55:33;0.80;95.30
9486;DHT22;4781;48.776;9.200;2023-04-06T03:58:02;0.80;93.90
9486;DHT22;4781;48.776;9.200;2023-04-06T04:00:30;0.80;94.10
9486;DHT22;4781;48.776;9.200;2023-04-06T04:02:59;0.80;94.20
9486;DHT22;4781;48.776;9.200;2023-04-06T04:05:28;0.80;93.90
9486;DHT22;4781;48.776;9.200;2023-04-06T04:07:57;0.80;94.10
9486;DHT22;4781;48.776;9.200;2023-04-06T04:10:25;0.80;93.30
9486;DHT22;4781;48.776;9.200;2023-04-06T04:12:54;0.80;94.60
9486;DHT22;4781;48.776;9.200;2023-04-06T04:15:22;0.70;94.80
9486;DHT22;4781;48.776;9.200;2023-04-06T04:17:50;0.70;95.60
9486;DHT22;4781;48.776;9.200;2023-04-06T04:20:19;0.70;94.90
9486;DHT22;4781;48.776;9.200;2023-04-06T04:22:48;0.70;95.30
9486;DHT22;4781;48.776;9.200;2023-04-06T04:25:16;0.70;94.20
9486;DHT22;4781;48.776;9.200;2023-04-06T04:27:44;0.70;93.80
9486;DHT22;4781;48.776;9.200;2023-04-06T04:30:13;0.70;94.00
9486;DHT22;4781;48.776;9.200;2023-04-06T04:32:41;0.60;94.80
9486;DHT22;4781;48.776;9.200;2023-04-06T04:35:10;0.60;95.00
9486;DHT22;4781;48.776;9.200;2023-04-06T04:37:41;0.60;95.20
9486;DHT22;4781;48.776;9.200;2023-04-06T04:40:10;0.60;94.60
9486;DHT22;4781;48.776;9.200;2023-04-06T04:42:38;0.60;95.10
9486;DHT22;4781;48.776;9.200;2023-04-06T04:45:07;0.50;96.10
9486;DHT22;4781;48.776;9.200;2023-04-06T04:47:36;0.50;95.50
9486;DHT22;4781;48.776;9.200;2023-04-06T04:50:05;0.50;96.50
9486;DHT22;4781;48.776;9.200;2023-04-06T04:52:34;0.50;95.70
9486;DHT22;4781;48.776;9.200;2023-04-06T04:55:02;0.50;96.40
9486;DHT22;4781;48.776;9.200;2023-04-06T04:57:31;0.50;96.20
9486;DHT22;4781;48.776;9.200;2023-04-06T04:59:59;0.50;96.30
9486;DHT22;4781;48.776;9.200;2023-04-06T05:02:28;0.50;96.60
9486;DHT22;4781;48.776;9.200;2023-04-06T05:04:57;0.50;96.70
9486;DHT22;4781;48.776;9.200;2023-04-06T05:07:25;0.50;95.50
9486;DHT22;4781;48.776;9.200;2023-04-06T05:09:54;0.50;95.40
9486;DHT22;4781;48.776;9.200;2023-04-06T05:12:22;0.60;96.40
9486;DHT22;4781;48.776;9.200;2023-04-06T05:14:51;0.60;96.20
9486;DHT22;4781;48.776;9.200;2023-04-06T05:17:20;0.60;95.80
9486;DHT22;4781;48.776;9.200;2023-04-06T05:19:49;0.60;95.80
9486;DHT22;4781;48.776;9.200;2023-04-06T05:22:17;0.60;97.00
9486;DHT22;4781;48.776;9.200;2023-04-06T05:24:46;0.60;96.30
9486;DHT22;4781;48.776;9.200;2023-04-06T05:27:14;0.60;95.50
9486;DHT22;4781;48.776;9.200;2023-04-06T05:29:43;0.70;95.80
9486;DHT22;4781;48.776;9.200;2023-04-06T05:32:12;0.70;97.00
9486;DHT22;4781;48.776;9.200;2023-04-06T05:34:40;0.70;98.00
9486;DHT22;4781;48.776;9.200;2023-04-06T05:37:08;0.80;97.30
9486;DHT22;4781;48.776;9.200;2023-04-06T05:39:37;0.80;96.10
9486;DHT22;4781;48.776;9.200;2023-04-06T05:42:06;0.80;95.80
9486;DHT22;4781;48.776;9.200;2023-04-06T05:44:34;0.90;96.70
9486;DHT22;4781;48.776;9.200;2023-04-06T05:47:05;0.90;96.40
9486;DHT22;4781;48.776;9.200;2023-04-06T05:49:33;1.00;96.80
9486;DHT22;4781;48.776;9.200;2023-04-06T05:52:02;1.00;97.20
9486;DHT22;4781;48.776;9.200;2023-04-06T05:54:30;1.10;96.30
9486;DHT22;4781;48.776;9.200;2023-04-06T05:56:59;1.10;96.10
9486;DHT22;4781;48.776;9.200;2023-04-06T05:59:32;1.20;96.60
9486;DHT22;4781;48.776;9.200;2023-04-06T06:02:00;1.30;96.50
9486;DHT22;4781;48.776;9.200;2023-04-06T06:04:29;1.30;95.70
9486;DHT22;4781;48.776;9.200;2023-04-06T06:06:58;1.40;95.60
9486;DHT22;4781;48.776;9.200;2023-04-06T06:09:27;1.50;96.20
9486;DHT22;4781;48.776;9.200;2023-04-06T06:11:55;1.60;97.00
9486;DHT22;4781;48.776;9.200;2023-04-06T06:14:24;1.70;96.60
9486;DHT22;4781;48.776;9.200;2023-04-06T06:16:54;1.80;96.80
9486;DHT22;4781;48.776;9.200;2023-04-06T06:19:22;2.00;96.10
9486;DHT22;4781;48.776;9.200;2023-04-06T06:21:51;2.20;95.20
9486;DHT22;4781;48.776;9.200;2023-04-06T06:24:19;2.40;95.00
9486;DHT22;4781;48.776;9.200;2023-04-06T06:26:47;2.50;94.90
9486;DHT22;4781;48.776;9.200;2023-04-06T06:29:16;2.60;95.00
9486;DHT22;4781;48.776;9.200;2023-04-06T06:31:44;2.70;95.50
9486;DHT22;4781;48.776;9.200;2023-04-06T06:34:13;2.70;95.80
9486;DHT22;4781;48.776;9.200;2023-04-06T06:36:41;2.80;96.10
9486;DHT22;4781;48.776;9.200;2023-04-06T06:39:10;2.90;96.40
9486;DHT22;4781;48.776;9.200;2023-04-06T06:41:38;3.00;96.20
9486;DHT22;4781;48.776;9.200;2023-04-06T06:44:07;3.10;96.00
9486;DHT22;4781;48.776;9.200;2023-04-06T06:46:35;3.20;96.10
9486;DHT22;4781;48.776;9.200;2023-04-06T06:49:03;3.40;96.40
9486;DHT22;4781;48.776;9.200;2023-04-06T06:51:32;3.50;96.30
9486;DHT22;4781;48.776;9.200;2023-04-06T06:54:01;3.60;96.40
9486;DHT22;4781;48.776;9.200;2023-04-06T06:56:29;3.70;96.30
9486;DHT22;4781;48.776;9.200;2023-04-06T06:58:57;3.80;96.40
9486;DHT22;4781;48.776;9.200;2023-04-06T07:01:26;3.50;96.40
9486;DHT22;4781;48.776;9.200;2023-04-06T07:03:54;4.00;96.40
9486;DHT22;4781;48.776;9.200;2023-04-06T07:06:23;4.10;96.30
9486;DHT22;4781;48.776;9.200;2023-04-06T07:08:51;4.30;96.70
9486;DHT22;4781;48.776;9.200;2023-04-06T07:11:20;4.40;96.60
9486;DHT22;4781;48.776;9.200;2023-04-06T07:13:48;4.50;96.20
9486;DHT22;4781;48.776;9.200;2023-04-06T07:16:17;4.60;96.10
9486;DHT22;4781;48.776;9.200;2023-04-06T07:18:45;4.70;96.60
9486;DHT22;4781;48.776;9.200;2023-04-06T07:21:14;4.90;95.90
9486;DHT22;4781;48.776;9.200;2023-04-06T07:23:42;5.00;95.60
9486;DHT22;4781;48.776;9.200;2023-04-06T07:26:10;5.10;95.40
9486;DHT22;4781;48.776;9.200;2023-04-06T07:28:39;5.20;95.10
9486;DHT22;4781;48.776;9.200;2023-04-06T07:31:07;5.30;95.20
9486;DHT22;4781;48.776;9.200;2023-04-06T07:33:36;5.50;95.50
9486;DHT22;4781;48.776;9.200;2023-04-06T07:36:05;5.70;96.10
9486;DHT22;4781;48.776;9.200;2023-04-06T07:38:33;5.90;96.20
9486;DHT22;4781;48.776;9.200;2023-04-06T07:41:02;6.10;95.70
9486;DHT22;4781;48.776;9.200;2023-04-06T07:43:30;6.30;95.60
9486;DHT22;4781;48.776;9.200;2023-04-06T07:45:59;6.50;95.90
9486;DHT22;4781;48.776;9.200;2023-04-06T07:48:27;6.70;95.90
9486;DHT22;4781;48.776;9.200;2023-04-06T07:53:53;7.00;94.70
9486;DHT22;4781;48.776;9.200;2023-04-06T07:56:22;7.30;95.10
9486;DHT22;4781;48.776;9.200;2023-04-06T07:58:51;7.50;93.50
9486;DHT22;4781;48.776;9.200;2023-04-06T08:01:21;7.70;94.90
9486;DHT22;4781;48.776;9.200;2023-04-06T08:04:09;7.90;93.90
9486;DHT22;4781;48.776;9.200;2023-04-06T08:06:37;8.10;94.50
9486;DHT22;4781;48.776;9.200;2023-04-06T08:09:07;8.30;93.60
9486;DHT22;4781;48.776;9.200;2023-04-06T08:11:36;8.40;92.60
9486;DHT22;4781;48.776;9.200;2023-04-06T08:14:04;8.50;92.30
9486;DHT22;4781;48.776;9.200;2023-04-06T08:16:32;8.60;91.90
9486;DHT22;4781;48.776;9.200;2023-04-06T08:19:01;8.60;91.60
9486;DHT22;4781;48.776;9.200;2023-04-06T08:21:30;8.90;93.20
9486;DHT22;4781;48.776;9.200;2023-04-06T08:23:59;9.00;92.10
9486;DHT22;4781;48.776;9.200;2023-04-06T08:26:28;9.10;92.20
9486;DHT22;4781;48.776;9.200;2023-04-06T08:28:56;9.30;92.10
9486;DHT22;4781;48.776;9.200;2023-04-06T08:31:25;9.40;91.70
9486;DHT22;4781;48.776;9.200;2023-04-06T08:33:53;9.50;91.30
9486;DHT22;4781;48.776;9.200;2023-04-06T08:36:22;9.70;91.10
9486;DHT22;4781;48.776;9.200;2023-04-06T08:38:51;9.80;91.30
9486;DHT22;4781;48.776;9.200;2023-04-06T08:41:20;9.90;91.10
9486;DHT22;4781;48.776;9.200;2023-04-06T08:44:11;10.10;89.70
9486;DHT22;4781;48.776;9.200;2023-04-06T08:46:40;10.20;89.20
9486;DHT22;4781;48.776;9.200;2023-04-06T08:49:08;10.30;88.20
9486;DHT22;4781;48.776;9.200;2023-04-06T08:51:37;10.40;87.50
9486;DHT22;4781;48.776;9.200;2023-04-06T08:54:06;10.50;87.20
9486;DHT22;4781;48.776;9.200;2023-04-06T08:56:40;10.60;87.80
9486;DHT22;4781;48.776;9.200;2023-04-06T08:59:07;10.70;88.00
9486;DHT22;4781;48.776;9.200;2023-04-06T09:01:39;11.00;89.50
9486;DHT22;4781;48.776;9.200;2023-04-06T09:04:12;11.10;86.10
9486;DHT22;4781;48.776;9.200;2023-04-06T09:06:41;11.20;80.60
9486;DHT22;4781;48.776;9.200;2023-04-06T09:09:10;11.40;82.80
9486;DHT22;4781;48.776;9.200;2023-04-06T09:11:46;11.60;77.30
9486;DHT22;4781;48.776;9.200;2023-04-06T09:14:17;11.60;78.20
9486;DHT22;4781;48.776;9.200;2023-04-06T09:16:47;11.80;78.10
9486;DHT22;4781;48.776;9.200;2023-04-06T09:19:16;11.90;79.20
9486;DHT22;4781;48.776;9.200;2023-04-06T09:21:44;12.00;79.00
9486;DHT22;4781;48.776;9.200;2023-04-06T09:24:12;12.20;78.50
9486;DHT22;4781;48.776;9.200;2023-04-06T09:26:50;12.30;75.10
9486;DHT22;4781;48.776;9.200;2023-04-06T09:32:13;12.50;74.90
9486;DHT22;4781;48.776;9.200;2023-04-06T09:34:43;12.60;72.50
9486;DHT22;4781;48.776;9.200;2023-04-06T09:37:17;12.70;73.50
9486;DHT22;4781;48.776;9.200;2023-04-06T09:39:47;12.80;73.50
9486;DHT22;4781;48.776;9.200;2023-04-06T09:42:36;12.90;71.90
9486;DHT22;4781;48.776;9.200;2023-04-06T09:45:05;13.00;70.90
9486;DHT22;4781;48.776;9.200;2023-04-06T09:47:45;13.20;70.90
9486;DHT22;4781;48.776;9.200;2023-04-06T09:50:14;13.40;70.40
9486;DHT22;4781;48.776;9.200;2023-04-06T09:52:48;13.50;67.50
9486;DHT22;4781;48.776;9.200;2023-04-06T09:58:06;13.00;60.00
9486;DHT22;4781;48.776;9.200;2023-04-06T10:00:47;13.20;63.80
9486;DHT22;4781;48.776;9.200;2023-04-06T10:03:31;13.50;65.30
9486;DHT22;4781;48.776;9.200;2023-04-06T10:06:09;13.60;64.50
9486;DHT22;4781;48.776;9.200;2023-04-06T10:08:41;13.90;67.50
9486;DHT22;4781;48.776;9.200;2023-04-06T10:11:11;13.90;62.40
9486;DHT22;4781;48.776;9.200;2023-04-06T10:13:39;13.90;61.70
9486;DHT22;4781;48.776;9.200;2023-04-06T10:16:08;14.00;60.90
9486;DHT22;4781;48.776;9.200;2023-04-06T10:18:39;13.90;58.20
9486;DHT22;4781;48.776;9.200;2023-04-06T10:21:14;13.80;59.60
9486;DHT22;4781;48.776;9.200;2023-04-06T10:23:52;14.10;60.60
9486;DHT22;4781;48.776;9.200;2023-04-06T10:26:27;14.20;60.50
9486;DHT22;4781;48.776;9.200;2023-04-06T10:29:02;14.30;58.90
9486;DHT22;4781;48.776;9.200;2023-04-06T10:31:29;14.50;59.20
9486;DHT22;4781;48.776;9.200;2023-04-06T10:34:02;14.20;56.70
9486;DHT22;4781;48.776;9.200;2023-04-06T10:36:34;14.30;58.50
9486;DHT22;4781;48.776;9.200;2023-04-06T10:39:04;14.30;57.10
9486;DHT22;4781;48.776;9.200;2023-04-06T10:44:20;14.00;56.50
9486;DHT22;4781;48.776;9.200;2023-04-06T10:46:56;14.00;56.00
9486;DHT22;4781;48.776;9.200;2023-04-06T10:49:27;14.20;58.60
9486;DHT22;4781;48.776;9.200;2023-04-06T10:51:56;14.30;56.80
9486;DHT22;4781;48.776;9.200;2023-04-06T10:54:26;14.20;55.60
9486;DHT22;4781;48.776;9.200;2023-04-06T10:56:56;14.40;56.10
9486;DHT22;4781;48.776;9.200;2023-04-06T10:59:24;14.50;57.00
9486;DHT22;4781;48.776;9.200;2023-04-06T11:01:53;14.60;55.80
9486;DHT22;4781;48.776;9.200;2023-04-06T11:04:22;14.60;57.00
9486;DHT22;4781;48.776;9.200;2023-04-06T11:06:51;14.40;55.90
9486;DHT22;4781;48.776;9.200;2023-04-06T11:09:27;14.30;53.50
9486;DHT22;4781;48.776;9.200;2023-04-06T11:11:58;14.10;55.70
9486;DHT22;4781;48.776;9.200;2023-04-06T11:14:27;14.50;57.20
9486;DHT22;4781;48.776;9.200;2023-04-06T11:16:55;14.40;53.20
9486;DHT22;4781;48.776;9.200;2023-04-06T11:19:24;13.70;54.00
9486;DHT22;4781;48.776;9.200;2023-04-06T11:21:53;13.70;55.30
9486;DHT22;4781;48.776;9.200;2023-04-06T11:24:24;14.30;57.40
9486;DHT22;4781;48.776;9.200;2023-04-06T11:26:59;14.50;56.50
9486;DHT22;4781;48.776;9.200;2023-04-06T11:29:32;14.80;54.70
9486;DHT22;4781;48.776;9.200;2023-04-06T11:32:04;14.70;54.10
9486;DHT22;4781;48.776;9.200;2023-04-06T11:34:40;14.90;55.60
9486;DHT22;4781;48.776;9.200;2023-04-06T11:37:10;15.00;54.20
9486;DHT22;4781;48.776;9.200;2023-04-06T11:39:49;15.10;54.50
9486;DHT22;4781;48.776;9.200;2023-04-06T11:42:26;15.00;52.60
9486;DHT22;4781;48.776;9.200;2023-04-06T11:44:57;15.30;56.00
9486;DHT22;4781;48.776;9.200;2023-04-06T11:47:30;15.50;55.40
9486;DHT22;4781;48.776;9.200;2023-04-06T11:52:40;15.10;53.20
9486;DHT22;4781;48.776;9.200;2023-04-06T11:55:14;15.10;54.30
9486;DHT22;4781;48.776;9.200;2023-04-06T11:57:44;15.40;54.70
9486;DHT22;4781;48.776;9.200;2023-04-06T12:00:13;15.40;51.80
9486;DHT22;4781;48.776;9.200;2023-04-06T12:02:47;15.40;52.80
9486;DHT22;4781;48.776;9.200;2023-04-06T12:05:16;15.60;53.90
9486;DHT22;4781;48.776;9.200;2023-04-06T12:07:44;15.60;53.60
9486;DHT22;4781;48.776;9.200;2023-04-06T12:10:13;15.70;53.50
9486;DHT22;4781;48.776;9.200;2023-04-06T12:12:41;15.80;53.20
9486;DHT22;4781;48.776;9.200;2023-04-06T12:15:10;15.60;51.60
9486;DHT22;4781;48.776;9.200;2023-04-06T12:17:38;15.60;53.30
9486;DHT22;4781;48.776;9.200;2023-04-06T12:20:07;15.30;50.80
9486;DHT22;4781;48.776;9.200;2023-04-06T12:22:35;15.10;51.90
9486;DHT22;4781;48.776;9.200;2023-04-06T12:25:04;15.30;52.90
9486;DHT22;4781;48.776;9.200;2023-04-06T12:27:34;15.40;51.30
9486;DHT22;4781;48.776;9.200;2023-04-06T12:30:03;15.60;53.30
9486;DHT22;4781;48.776;9.200;2023-04-06T12:32:32;15.80;53.20
9486;DHT22;4781;48.776;9.200;2023-04-06T12:35:00;15.70;52.70
9486;DHT22;4781;48.776;9.200;2023-04-06T12:37:29;15.70;50.80
9486;DHT22;4781;48.776;9.200;2023-04-06T12:39:57;15.70;50.70
9486;DHT22;4781;48.776;9.200;2023-04-06T12:42:26;15.70;50.30
9486;DHT22;4781;48.776;9.200;2023-04-06T12:44:55;15.60;50.10
9486;DHT22;4781;48.776;9.200;2023-04-06T12:47:24;15.80;50.90
9486;DHT22;4781;48.776;9.200;2023-04-06T12:49:54;15.90;51.50
9486;DHT22;4781;48.776;9.200;2023-04-06T12:52:23;15.90;50.70
9486;DHT22;4781;48.776;9.200;2023-04-06T12:54:52;15.90;49.90
9486;DHT22;4781;48.776;9.200;2023-04-06T12:57:21;15.80;50.00
9486;DHT22;4781;48.776;9.200;2023-04-06T12:59:49;15.60;49.60
9486;DHT22;4781;48.776;9.200;2023-04-06T13:02:18;15.70;51.20
9486;DHT22;4781;48.776;9.200;2023-04-06T13:04:49;15.90;51.10
9486;DHT22;4781;48.776;9.200;2023-04-06T13:07:18;16.00;50.20
9486;DHT22;4781;48.776;9.200;2023-04-06T13:09:46;16.10;50.20
9486;DHT22;4781;48.776;9.200;2023-04-06T13:12:16;16.00;49.50
9486;DHT22;4781;48.776;9.200;2023-04-06T13:14:45;15.90;49.10
9486;DHT22;4781;48.776;9.200;2023-04-06T13:17:15;15.60;47.40
9486;DHT22;4781;48.776;9.200;2023-04-06T13:19:44;15.30;49.10
9486;DHT22;4781;48.776;9.200;2023-04-06T13:22:12;15.50;50.00
9486;DHT22;4781;48.776;9.200;2023-04-06T13:24:42;15.60;49.70
9486;DHT22;4781;48.776;9.200;2023-04-06T13:27:10;15.50;50.40
9486;DHT22;4781;48.776;9.200;2023-04-06T13:29:39;15.60;50.90
9486;DHT22;4781;48.776;9.200;2023-04-06T13:32:07;15.60;50.90
9486;DHT22;4781;48.776;9.200;2023-04-06T13:34:36;15.60;50.40
9486;DHT22;4781;48.776;9.200;2023-04-06T13:37:05;15.60;50.40
9486;DHT22;4781;48.776;9.200;2023-04-06T13:39:33;15.50;49.60
9486;DHT22;4781;48.776;9.200;2023-04-06T13:42:01;15.60;49.90
9486;DHT22;4781;48.776;9.200;2023-04-06T13:44:30;15.50;48.90
9486;DHT22;4781;48.776;9.200;2023-04-06T13:46:59;15.60;50.40
9486;DHT22;4781;48.776;9.200;2023-04-06T13:49:27;15.60;49.20
9486;DHT22;4781;48.776;9.200;2023-04-06T13:51:56;15.60;49.10
9486;DHT22;4781;48.776;9.200;2023-04-06T13:54:26;15.50;48.60
9486;DHT22;4781;48.776;9.200;2023-04-06T13:56:54;15.60;49.70
9486;DHT22;4781;48.776;9.200;2023-04-06T13:59:23;15.60;49.50
9486;DHT22;4781;48.776;9.200;2023-04-06T14:01:51;15.60;49.50
9486;DHT22;4781;48.776;9.200;2023-04-06T14:04:20;15.40;49.10
9486;DHT22;4781;48.776;9.200;2023-04-06T14:06:48;15.20;49.40
9486;DHT22;4781;48.776;9.200;2023-04-06T14:09:17;15.20;50.60
9486;DHT22;4781;48.776;9.200;2023-04-06T14:11:45;15.40;51.70
9486;DHT22;4781;48.776;9.200;2023-04-06T14:14:13;15.40;51.00
9486;DHT22;4781;48.776;9.200;2023-04-06T14:16:42;15.30;49.40
9486;DHT22;4781;48.776;9.200;2023-04-06T14:19:15;15.30;50.10
9486;DHT22;4781;48.776;9.200;2023-04-06T14:21:48;15.40;50.50
9486;DHT22;4781;48.776;9.200;2023-04-06T14:24:18;15.30;49.50
9486;DHT22;4781;48.776;9.200;2023-04-06T14:26:47;15.20;49.40
9486;DHT22;4781;48.776;9.200;2023-04-06T14:29:15;15.20;49.80
9486;DHT22;4781;48.776;9.200;2023-04-06T14:31:46;15.10;48.80
9486;DHT22;4781;48.776;9.200;2023-04-06T14:34:15;15.10;48.50
9486;DHT22;4781;48.776;9.200;2023-04-06T14:36:44;15.10;48.90
9486;DHT22;4781;48.776;9.200;2023-04-06T14:39:12;15.10;49.60
9486;DHT22;4781;48.776;9.200;2023-04-06T14:41:41;15.20;50.30
9486;DHT22;4781;48.776;9.200;2023-04-06T14:44:09;15.20;50.60
9486;DHT22;4781;48.776;9.200;2023-04-06T14:46:40;15.30;50.20
9486;DHT22;4781;48.776;9.200;2023-04-06T14:49:08;15.30;48.10
9486;DHT22;4781;48.776;9.200;2023-04-06T14:51:37;15.20;49.30
9486;DHT22;4781;48.776;9.200;2023-04-06T14:54:05;15.20;49.00
9486;DHT22;4781;48.776;9.200;2023-04-06T14:56:33;15.20;49.40
9486;DHT22;4781;48.776;9.200;2023-04-06T14:59:04;15.20;49.70
9486;DHT22;4781;48.776;9.200;2023-04-06T15:01:36;15.20;48.70
9486;DHT22;4781;48.776;9.200;2023-04-06T15:04:05;15.20;49.80
9486;DHT22;4781;48.776;9.200;2023-04-06T15:06:33;15.20;50.20
9486;DHT22;4781;48.776;9.200;2023-04-06T15:09:01;15.20;49.30
9486;DHT22;4781;48.776;9.200;2023-04-06T15:11:30;15.10;49.20
9486;DHT22;4781;48.776;9.200;2023-04-06T15:13:59;15.10;48.80
9486;DHT22;4781;48.776;9.200;2023-04-06T15:16:28;15.20;49.50
9486;DHT22;4781;48.776;9.200;2023-04-06T15:19:00;15.10;48.80
9486;DHT22;4781;48.776;9.200;2023-04-06T15:21:28;15.10;49.50
9486;DHT22;4781;48.776;9.200;2023-04-06T15:23:57;15.00;48.70
9486;DHT22;4781;48.776;9.200;2023-04-06T15:26:25;14.80;47.90
9486;DHT22;4781;48.776;9.200;2023-04-06T15:28:54;14.70;47.70
9486;DHT22;4781;48.776;9.200;2023-04-06T15:31:22;14.40;47.60
9486;DHT22;4781;48.776;9.200;2023-04-06T15:33:51;14.40;48.70
9486;DHT22;4781;48.776;9.200;2023-04-06T15:36:25;14.60;48.80
9486;DHT22;4781;48.776;9.200;2023-04-06T15:38:57;14.60;49.60
9486;DHT22;4781;48.776;9.200;2023-04-06T15:41:26;14.60;49.60
9486;DHT22;4781;48.776;9.200;2023-04-06T15:43:55;14.60;49.10
9486;DHT22;4781;48.776;9.200;2023-04-06T15:46:23;14.60;49.60
9486;DHT22;4781;48.776;9.200;2023-04-06T15:48:53;14.60;49.20
9486;DHT22;4781;48.776;9.200;2023-04-06T15:51:21;14.50;50.30
9486;DHT22;4781;48.776;9.200;2023-04-06T15:53:50;14.50;50.20
9486;DHT22;4781;48.776;9.200;2023-04-06T15:56:18;14.50;50.40
9486;DHT22;4781;48.776;9.200;2023-04-06T15:58:46;14.50;50.30
9486;DHT22;4781;48.776;9.200;2023-04-06T16:01:16;14.40;49.70
9486;DHT22;4781;48.776;9.200;2023-04-06T16:03:45;14.40;50.20
9486;DHT22;4781;48.776;9.200;2023-04-06T16:06:14;14.30;50.10
9486;DHT22;4781;48.776;9.200;2023-04-06T16:08:42;14.30;50.60
9486;DHT22;4781;48.776;9.200;2023-04-06T16:11:11;14.30;50.40
9486;DHT22;4781;48.776;9.200;2023-04-06T16:13:39;14.20;50.10
9486;DHT22;4781;48.776;9.200;2023-04-06T16:16:08;14.20;49.90
9486;DHT22;4781;48.776;9.200;2023-04-06T16:18:36;14.10;50.10
9486;DHT22;4781;48.776;9.200;2023-04-06T16:21:05;14.00;49.40
9486;DHT22;4781;48.776;9.200;2023-04-06T16:23:33;13.80;50.10
9486;DHT22;4781;48.776;9.200;2023-04-06T16:26:09;13.80;51.10
9486;DHT22;4781;48.776;9.200;2023-04-06T16:28:33;13.90;50.90
9486;DHT22;4781;48.776;9.200;2023-04-06T16:31:02;13.90;51.00
9486;DHT22;4781;48.776;9.200;2023-04-06T16:33:30;13.90;51.00
9486;DHT22;4781;48.776;9.200;2023-04-06T16:35:59;13.80;51.10